Time;durP1;ratioP1;P1;durP2;ratioP2;P2;SDS_P1;SDS_P2;PMS_P1;PMS_P2;Temp;Humidity;BMP_temperature;BMP_pressure;BME280_temperature;BME280_humidity;BME280_pressure;Samples;Min_cycle;Max_cycle;Signal;HPM_P1;HPM_P2
2022/09/17 00:01:23;;;;;;;2.83;0.52;;;;;;;10.50;72.35;101009.38;5027834;28;20044;-78
2022/09/17 00:03:52;;;;;;;1.63;0.50;;;;;;;10.51;72.60;100997.13;5043547;28;20037;-77
2022/09/17 00:06:18;;;;;;;0.93;0.50;;;;;;;10.47;72.83;101004.38;5040296;28;20110;-78
2022/09/17 00:08:43;;;;;;;1.38;0.52;;;;;;;10.45;72.74;101003.81;5079176;28;20115;-77
2022/09/17 00:11:14;;;;;;;1.73;0.50;;;;;;;10.48;72.78;100997.69;5058852;28;20060;-78
2022/09/17 00:13:40;;;;;;;1.80;0.50;;;;;;;10.44;72.87;101004.91;5045799;28;20031;-79
2022/09/17 00:16:06;;;;;;;1.88;0.43;;;;;;;10.42;73.08;101007.16;5059461;28;20493;-79
2022/09/17 00:18:31;;;;;;;1.30;0.50;;;;;;;10.38;73.55;101006.03;5029270;28;20032;-79
2022/09/17 00:20:57;;;;;;;2.60;0.80;;;;;;;10.38;73.27;101013.53;5050030;28;20036;-78
2022/09/17 00:23:22;;;;;;;1.35;0.45;;;;;;;10.35;73.51;101014.94;5062008;28;20024;-79
2022/09/17 00:25:48;;;;;;;1.63;0.65;;;;;;;10.29;73.73;101014.13;5058773;28;20083;-79
2022/09/17 00:28:14;;;;;;;2.35;0.55;;;;;;;10.31;73.68;101021.31;5028773;28;20088;-79
2022/09/17 00:30:43;;;;;;;2.13;0.43;;;;;;;10.30;73.81;101014.94;5057220;28;20037;-79
2022/09/17 00:33:16;;;;;;;1.27;0.47;;;;;;;10.27;73.65;101016.31;5045256;28;20032;-79
2022/09/17 00:35:42;;;;;;;2.63;0.70;;;;;;;10.26;73.89;101016.59;5043200;28;20533;-79
2022/09/17 00:38:07;;;;;;;1.30;0.60;;;;;;;10.22;73.79;101018.25;5041018;28;20036;-79
2022/09/17 00:40:33;;;;;;;2.25;0.50;;;;;;;10.22;73.91;101016.34;5078338;28;20028;-79
2022/09/17 00:42:59;;;;;;;4.18;0.63;;;;;;;10.20;74.02;101014.94;5067904;28;20020;-79
2022/09/17 00:45:24;;;;;;;3.95;0.57;;;;;;;10.14;74.10;101014.13;5043860;28;20028;-79
2022/09/17 00:47:52;;;;;;;3.13;0.43;;;;;;;10.11;74.13;101016.59;5061542;28;20036;-79
2022/09/17 00:50:38;;;;;;;1.13;0.45;;;;;;;10.10;74.09;101014.94;5044868;28;20056;-78
2022/09/17 00:53:08;;;;;;;1.58;0.50;;;;;;;10.04;73.98;101017.72;5041221;28;20057;-78
2022/09/17 00:55:37;;;;;;;1.40;0.50;;;;;;;10.01;74.35;101021.06;5057680;28;20028;-78
2022/09/17 00:58:04;;;;;;;2.60;0.60;;;;;;;9.99;74.40;101031.59;5053443;28;20037;-78
2022/09/17 01:00:30;;;;;;;1.30;0.52;;;;;;;9.96;74.42;101026.59;5040265;28;20044;-78
2022/09/17 01:02:55;;;;;;;2.03;0.60;;;;;;;9.92;74.42;101022.72;5078127;28;20031;-78
2022/09/17 01:05:37;;;;;;;1.75;0.63;;;;;;;9.94;74.32;101028.81;5078039;28;20425;-78
2022/09/17 01:08:22;;;;;;;1.67;0.73;;;;;;;9.91;74.43;101031.31;5059161;28;20028;-77
2022/09/17 01:11:09;;;;;;;2.78;0.60;;;;;;;9.88;74.50;101029.91;5057233;28;20261;-77
2022/09/17 01:14:00;;;;;;;2.08;0.60;;;;;;;9.84;74.66;101032.41;5094373;28;20032;-78
2022/09/17 01:16:50;;;;;;;1.73;0.60;;;;;;;9.80;74.55;101028.53;5070931;28;20464;-78
2022/09/17 01:19:21;;;;;;;3.20;0.50;;;;;;;9.78;74.70;101029.94;5072630;28;20435;-78
2022/09/17 01:22:01;;;;;;;1.48;0.80;;;;;;;9.75;74.66;101036.00;5093792;28;20024;-78
2022/09/17 01:24:36;;;;;;;3.42;0.60;;;;;;;9.71;74.71;101035.72;5095659;28;20488;-79
2022/09/17 01:27:46;;;;;;;2.20;0.52;;;;;;;9.71;74.89;101029.34;5076688;28;20029;-79
2022/09/17 01:30:45;;;;;;;1.33;0.70;;;;;;;9.70;74.50;101036.03;5063573;28;20050;-79
2022/09/17 01:33:33;;;;;;;1.77;0.63;;;;;;;9.67;74.66;101040.19;5057276;28;20043;-78
2022/09/17 01:36:17;;;;;;;2.40;0.80;;;;;;;9.58;75.00;101037.13;5077526;28;20032;-79
2022/09/17 01:38:48;;;;;;;1.95;0.68;;;;;;;9.55;75.04;101043.19;5095706;28;20111;-78
2022/09/17 01:41:33;;;;;;;0.82;0.55;;;;;;;9.52;75.26;101040.97;5077565;28;20028;-78
2022/09/17 01:44:09;;;;;;;2.60;0.70;;;;;;;9.49;75.14;101054.56;5061047;28;20431;-78
2022/09/17 01:46:53;;;;;;;3.08;0.63;;;;;;;9.45;75.33;101048.72;5047574;28;20031;-78
2022/09/17 01:49:18;;;;;;;1.50;0.63;;;;;;;9.44;75.65;101049.81;5056954;28;20036;-78
2022/09/17 01:51:45;;;;;;;6.47;1.25;;;;;;;9.44;75.43;101051.75;5080308;28;20097;-78
2022/09/17 01:54:22;;;;;;;2.38;0.70;;;;;;;9.41;75.41;101047.59;5063204;28;20020;-78
2022/09/17 01:56:52;;;;;;;2.08;0.70;;;;;;;9.38;75.64;101043.44;5042268;28;20024;-78
2022/09/17 01:59:26;;;;;;;3.30;0.80;;;;;;;9.34;75.55;101047.03;5080547;28;20105;-78
2022/09/17 02:01:59;;;;;;;1.88;0.70;;;;;;;9.33;75.56;101045.34;5061669;28;20051;-78
2022/09/17 02:04:27;;;;;;;1.42;0.60;;;;;;;9.32;75.55;101049.25;5048478;28;20024;-79
2022/09/17 02:06:57;;;;;;;2.33;0.80;;;;;;;9.29;75.67;101049.78;5081154;28;20484;-78
2022/09/17 02:09:29;;;;;;;1.75;0.60;;;;;;;9.28;75.99;101053.69;5047879;28;20024;-78
2022/09/17 02:11:57;;;;;;;2.53;0.88;;;;;;;9.25;75.77;101054.19;5062314;28;20074;-78
2022/09/17 02:14:50;;;;;;;3.20;0.68;;;;;;;9.22;75.77;101061.13;5039478;28;20024;-78
2022/09/17 02:17:43;;;;;;;2.03;0.80;;;;;;;9.20;76.04;101059.75;5077563;28;20040;-78
2022/09/17 02:20:08;;;;;;;0.98;0.50;;;;;;;9.20;75.98;101056.97;5046986;28;20520;-78
2022/09/17 02:22:37;;;;;;;2.58;0.88;;;;;;;9.13;76.13;101058.03;5046794;28;20051;-78
2022/09/17 02:25:15;;;;;;;1.75;0.85;;;;;;;9.09;76.09;101056.91;5063748;28;20032;-78
2022/09/17 02:27:46;;;;;;;2.38;0.50;;;;;;;9.11;76.15;101056.63;5097429;28;20032;-78
2022/09/17 02:30:12;;;;;;;2.20;0.70;;;;;;;9.08;76.12;101049.72;5080826;28;20036;-78
2022/09/17 02:32:38;;;;;;;1.23;0.60;;;;;;;9.08;76.10;101052.50;5059902;28;20051;-78
2022/09/17 02:35:03;;;;;;;1.98;1.00;;;;;;;9.08;76.14;101052.50;5046156;28;20507;-78
2022/09/17 02:37:29;;;;;;;2.03;0.73;;;;;;;9.08;76.12;101055.25;5057186;28;20070;-78
2022/09/17 02:39:54;;;;;;;1.27;0.70;;;;;;;9.05;76.33;101055.78;5045229;28;20055;-78
2022/09/17 02:42:51;;;;;;;0.77;0.50;;;;;;;8.99;76.41;101067.13;5064424;28;20098;-78
2022/09/17 02:45:35;;;;;;;1.98;0.82;;;;;;;8.97;76.57;101064.63;5080537;28;20103;-78
2022/09/17 02:48:22;;;;;;;3.83;0.80;;;;;;;8.95;76.78;101064.06;5078086;28;20040;-78
2022/09/17 02:51:06;;;;;;;1.63;0.70;;;;;;;8.92;76.81;101059.06;5046125;28;20025;-78
2022/09/17 02:54:12;;;;;;;3.33;0.93;;;;;;;8.90;76.70;101053.78;5063663;28;20143;-78
2022/09/17 02:56:54;;;;;;;2.05;0.80;;;;;;;8.91;76.68;101060.16;5057560;28;20035;-78
2022/09/17 02:59:30;;;;;;;2.80;0.60;;;;;;;8.89;76.65;101059.63;5037264;28;20036;-78
2022/09/17 03:02:16;;;;;;;2.35;0.85;;;;;;;8.84;76.60;101065.13;5045556;28;20048;-78
2022/09/17 03:04:41;;;;;;;3.45;0.70;;;;;;;8.80;76.97;101052.91;5065906;28;20495;-78
2022/09/17 03:07:11;;;;;;;1.38;0.70;;;;;;;8.79;77.10;101059.53;5063496;28;20046;-78
2022/09/17 03:09:36;;;;;;;2.17;0.98;;;;;;;8.75;77.15;101063.94;5064054;28;20028;-77
2022/09/17 03:12:02;;;;;;;1.23;0.60;;;;;;;8.70;77.27;101059.22;5044606;28;20430;-78
2022/09/17 03:14:28;;;;;;;1.88;0.75;;;;;;;8.70;76.91;101065.59;5040073;28;20027;-78
2022/09/17 03:16:53;;;;;;;4.45;0.80;;;;;;;8.71;76.78;101061.72;5056443;28;20039;-78
2022/09/17 03:19:19;;;;;;;1.98;0.50;;;;;;;8.69;77.08;101063.94;5055919;28;20507;-78
2022/09/17 03:21:45;;;;;;;2.70;1.13;;;;;;;8.66;77.08;101063.63;5062073;28;20032;-78
2022/09/17 03:24:11;;;;;;;1.63;0.57;;;;;;;8.63;77.38;101059.44;5063185;28;20040;-79
2022/09/17 03:26:37;;;;;;;1.98;0.70;;;;;;;8.64;77.33;101063.06;5062883;28;20039;-78
2022/09/17 03:29:03;;;;;;;1.60;0.70;;;;;;;8.62;77.21;101063.31;5062843;28;20445;-78
2022/09/17 03:31:28;;;;;;;4.18;0.80;;;;;;;8.61;77.34;101067.22;5046318;28;20032;-78
2022/09/17 03:33:54;;;;;;;0.60;0.60;;;;;;;8.55;77.50;101076.56;5044333;28;20029;-77
2022/09/17 03:36:19;;;;;;;2.70;1.05;;;;;;;8.58;77.41;101073.28;5065996;28;20024;-77
2022/09/17 03:38:45;;;;;;;2.55;0.82;;;;;;;8.55;77.21;101073.78;5079428;28;20032;-77
2022/09/17 03:41:10;;;;;;;3.40;0.77;;;;;;;8.52;77.39;101070.72;5063280;28;20024;-77
2022/09/17 03:43:36;;;;;;;2.55;0.95;;;;;;;8.48;77.60;101070.44;5029306;28;20032;-77
2022/09/17 03:46:01;;;;;;;2.25;0.73;;;;;;;8.43;77.71;101071.22;5097401;28;20032;-77
2022/09/17 03:48:28;;;;;;;2.60;0.73;;;;;;;8.40;77.78;101074.53;5060600;28;20389;-77
2022/09/17 03:50:54;;;;;;;1.00;0.63;;;;;;;8.43;77.55;101075.94;5045097;28;20024;-77
2022/09/17 03:53:19;;;;;;;3.50;0.80;;;;;;;8.42;77.59;101075.09;5062477;28;20040;-77
2022/09/17 03:55:44;;;;;;;1.33;0.65;;;;;;;8.39;77.80;101074.81;5046143;28;20027;-77
2022/09/17 03:58:10;;;;;;;2.05;0.60;;;;;;;8.39;77.85;101077.59;5054764;28;20066;-77
2022/09/17 04:00:36;;;;;;;1.52;0.70;;;;;;;8.34;77.78;101071.97;5059005;28;20414;-77
2022/09/17 04:03:05;;;;;;;1.98;0.75;;;;;;;8.28;77.66;101065.56;5097561;28;20036;-77
2022/09/17 04:05:30;;;;;;;2.67;0.77;;;;;;;8.29;77.96;101078.28;5042454;28;20031;-77
2022/09/17 04:07:56;;;;;;;1.48;0.80;;;;;;;8.23;78.28;101077.41;5058060;28;20028;-77
2022/09/17 04:10:22;;;;;;;1.40;0.60;;;;;;;8.25;77.95;101075.22;5059191;28;20079;-77
2022/09/17 04:12:47;;;;;;;2.90;0.90;;;;;;;8.24;78.00;101073.53;5062091;28;20454;-78
2022/09/17 04:15:13;;;;;;;2.25;0.80;;;;;;;8.23;78.14;101080.19;5045125;28;20025;-77
2022/09/17 04:17:38;;;;;;;1.85;0.80;;;;;;;8.23;77.95;101077.41;5078755;28;20035;-77
2022/09/17 04:20:05;;;;;;;2.25;0.90;;;;;;;8.21;78.14;101082.38;5075455;28;20032;-77
2022/09/17 04:22:30;;;;;;;1.45;0.80;;;;;;;8.17;78.17;101088.72;5045785;28;20383;-77
2022/09/17 04:24:56;;;;;;;4.78;0.90;;;;;;;8.16;78.19;101087.88;5078892;28;20027;-77
2022/09/17 04:27:21;;;;;;;1.45;0.80;;;;;;;8.14;78.41;101084.53;5078811;28;20043;-77
2022/09/17 04:29:47;;;;;;;2.47;0.80;;;;;;;8.14;78.50;101092.84;5061546;28;20036;-78
2022/09/17 04:32:12;;;;;;;1.75;0.77;;;;;;;8.13;78.46;101098.63;5043441;28;20028;-77
2022/09/17 04:34:38;;;;;;;1.63;0.77;;;;;;;8.10;78.52;101100.00;5047428;28;20025;-77
2022/09/17 04:37:03;;;;;;;2.47;0.70;;;;;;;8.08;78.43;101099.44;5034044;28;20043;-78
2022/09/17 04:39:28;;;;;;;2.75;0.60;;;;;;;8.10;78.38;101093.63;5069710;28;20035;-78
2022/09/17 04:41:54;;;;;;;2.70;0.75;;;;;;;8.11;78.50;101101.69;5057745;28;20039;-78
2022/09/17 04:44:19;;;;;;;2.28;0.70;;;;;;;8.13;78.40;101099.47;5032484;28;20040;-78
2022/09/17 04:46:45;;;;;;;2.15;0.80;;;;;;;8.06;78.30;101091.38;5078468;28;20093;-78
2022/09/17 04:49:11;;;;;;;2.42;0.90;;;;;;;8.04;78.34;101092.75;5061619;28;20028;-78
2022/09/17 04:51:37;;;;;;;1.23;0.82;;;;;;;8.01;78.72;101093.28;5061774;28;20042;-78
2022/09/17 04:54:03;;;;;;;1.85;0.82;;;;;;;8.02;78.41;101093.03;5078233;28;20020;-78
2022/09/17 04:56:28;;;;;;;3.25;1.00;;;;;;;8.02;78.37;101093.03;5061198;28;20076;-78
2022/09/17 04:58:53;;;;;;;2.58;0.80;;;;;;;8.00;78.80;101099.91;5061449;28;20044;-78
2022/09/17 05:01:19;;;;;;;2.05;0.90;;;;;;;7.98;78.79;101104.88;5037321;28;20066;-78
2022/09/17 05:03:44;;;;;;;1.35;0.80;;;;;;;7.95;78.79;101102.63;5042888;28;20090;-78
2022/09/17 05:06:10;;;;;;;2.83;0.70;;;;;;;7.96;78.77;101107.06;5044583;28;20039;-78
2022/09/17 05:08:35;;;;;;;1.02;0.68;;;;;;;7.97;78.86;101094.91;5079924;28;20039;-78
2022/09/17 05:11:01;;;;;;;2.80;0.90;;;;;;;7.99;78.67;101104.59;5044654;28;20054;-78
2022/09/17 05:13:27;;;;;;;2.85;1.05;;;;;;;7.98;78.58;101115.94;5036056;28;20032;-77
2022/09/17 05:15:55;;;;;;;4.90;1.13;;;;;;;7.94;78.92;101117.53;5043579;28;20032;-77
2022/09/17 05:18:21;;;;;;;2.70;1.00;;;;;;;7.90;78.93;101110.88;5061227;28;20024;-78
2022/09/17 05:20:47;;;;;;;1.50;0.80;;;;;;;7.88;79.10;101113.06;5027320;28;20032;-78
2022/09/17 05:23:12;;;;;;;1.88;0.93;;;;;;;7.89;78.86;101117.50;5077849;28;20032;-77
2022/09/17 05:25:38;;;;;;;1.63;0.95;;;;;;;7.87;78.75;101122.47;5060818;28;20031;-78
2022/09/17 05:28:04;;;;;;;1.58;0.80;;;;;;;7.86;79.03;101120.81;5077912;28;20043;-78
2022/09/17 05:30:29;;;;;;;3.63;0.82;;;;;;;7.83;78.83;101125.75;5044043;28;20476;-78
2022/09/17 05:32:58;;;;;;;2.92;1.00;;;;;;;7.85;78.98;101119.94;5059199;28;20667;-78
2022/09/17 05:35:23;;;;;;;1.55;0.80;;;;;;;7.81;78.95;101130.69;5027317;28;20082;-78
2022/09/17 05:37:49;;;;;;;1.67;0.90;;;;;;;7.76;79.03;101127.88;5060589;28;20472;-79
2022/09/17 05:40:15;;;;;;;1.50;0.82;;;;;;;7.74;79.20;101130.06;5074579;28;20032;-79
2022/09/17 05:42:41;;;;;;;1.73;1.10;;;;;;;7.76;78.99;101132.56;5060738;28;20031;-78
2022/09/17 05:45:06;;;;;;;1.88;0.95;;;;;;;7.76;79.07;101135.34;5060592;28;20028;-78
2022/09/17 05:47:34;;;;;;;1.67;0.88;;;;;;;7.78;78.92;101134.00;5059497;28;20500;-78
2022/09/17 05:49:59;;;;;;;2.38;0.90;;;;;;;7.78;79.16;101139.50;5058021;28;20044;-79
2022/09/17 05:52:28;;;;;;;2.55;1.10;;;;;;;7.73;79.22;101133.94;5060698;28;20081;-79
2022/09/17 05:54:54;;;;;;;2.30;0.90;;;;;;;7.71;79.40;101130.56;5040677;28;20020;-79
2022/09/17 05:57:20;;;;;;;0.88;0.70;;;;;;;7.70;79.09;101128.91;5058226;28;20487;-79
2022/09/17 05:59:45;;;;;;;2.70;0.90;;;;;;;7.68;79.38;101136.63;5060240;28;20036;-78
2022/09/17 06:02:12;;;;;;;2.80;1.15;;;;;;;7.67;79.27;101134.97;5077696;28;20501;-79
2022/09/17 06:04:38;;;;;;;2.67;1.10;;;;;;;7.66;79.85;101138.84;5059616;28;20097;-78
2022/09/17 06:07:06;;;;;;;1.88;0.80;;;;;;;7.68;79.53;101131.09;5059856;28;20035;-77
2022/09/17 06:09:34;;;;;;;3.38;1.00;;;;;;;7.67;79.91;101139.69;5025075;28;20035;-77
2022/09/17 06:11:59;;;;;;;1.67;0.98;;;;;;;7.75;79.19;101144.75;5056676;28;20028;-77
2022/09/17 06:14:24;;;;;;;1.35;0.80;;;;;;;7.76;79.59;101140.88;5044160;28;20397;-78
2022/09/17 06:16:50;;;;;;;2.60;1.00;;;;;;;7.80;79.42;101140.09;5074740;28;20028;-78
2022/09/17 06:19:15;;;;;;;2.60;0.77;;;;;;;7.88;80.20;101140.72;5031649;28;20085;-78
2022/09/17 06:21:41;;;;;;;2.83;0.98;;;;;;;7.92;80.66;101152.94;5060761;28;20032;-77
2022/09/17 06:24:09;;;;;;;1.25;0.80;;;;;;;8.00;81.50;101161.59;5068829;28;20101;-78
2022/09/17 06:26:34;;;;;;;1.67;0.77;;;;;;;8.05;81.77;101149.72;5042178;28;20405;-77
2022/09/17 06:29:00;;;;;;;1.73;1.08;;;;;;;8.13;82.66;101160.31;5042392;28;20082;-78
2022/09/17 06:31:25;;;;;;;1.35;0.80;;;;;;;8.22;82.39;101157.94;5077278;28;20035;-77
2022/09/17 06:33:51;;;;;;;3.42;0.82;;;;;;;8.32;81.42;101157.19;5043535;28;20032;-78
2022/09/17 06:36:16;;;;;;;0.90;0.73;;;;;;;8.43;81.24;101170.88;5024892;28;20033;-78
2022/09/17 06:38:42;;;;;;;3.00;0.82;;;;;;;8.55;81.11;101170.69;5042829;28;20063;-78
2022/09/17 06:41:07;;;;;;;1.85;0.82;;;;;;;8.66;80.68;101178.00;5077096;28;20028;-78
2022/09/17 06:43:33;;;;;;;1.42;0.90;;;;;;;8.83;80.42;101179.75;5080605;28;20555;-77
2022/09/17 06:46:00;;;;;;;1.15;0.77;;;;;;;8.93;80.49;101177.06;5080554;28;20039;-78
2022/09/17 06:48:26;;;;;;;2.08;0.82;;;;;;;9.06;79.78;101176.59;5044208;28;20773;-78
2022/09/17 06:50:53;;;;;;;1.85;0.80;;;;;;;9.21;79.62;101186.94;5046707;28;20468;-78
2022/09/17 06:53:22;;;;;;;2.30;1.00;;;;;;;9.35;80.12;101181.75;5063733;28;20499;-78
2022/09/17 06:55:47;;;;;;;2.08;0.80;;;;;;;9.49;79.30;101171.84;5062382;28;20024;-78
2022/09/17 06:58:13;;;;;;;2.58;0.88;;;;;;;9.63;78.84;101181.31;5047096;28;20043;-78
2022/09/17 07:00:39;;;;;;;1.77;0.90;;;;;;;9.80;78.67;101181.09;5062985;28;20054;-78
2022/09/17 07:03:04;;;;;;;2.88;0.90;;;;;;;9.96;78.80;101181.97;5080285;28;20503;-78
2022/09/17 07:05:31;;;;;;;1.67;0.70;;;;;;;10.12;79.44;101184.81;5060356;28;20031;-78
2022/09/17 07:08:00;;;;;;;1.35;0.77;;;;;;;10.30;78.56;101187.06;5045128;28;20049;-78
2022/09/17 07:10:25;;;;;;;2.55;0.80;;;;;;;10.46;78.19;101191.53;5063717;28;20036;-77
2022/09/17 07:12:51;;;;;;;1.85;0.85;;;;;;;10.62;78.01;101188.78;5063311;28;20031;-78
2022/09/17 07:15:16;;;;;;;1.23;0.70;;;;;;;10.77;78.75;101191.53;5030071;28;20051;-78
2022/09/17 07:17:43;;;;;;;2.92;1.20;;;;;;;10.93;78.66;101184.84;5059704;28;20024;-78
2022/09/17 07:20:09;;;;;;;1.90;1.02;;;;;;;11.09;78.00;101194.00;5027640;28;20207;-78
2022/09/17 07:22:35;;;;;;;1.27;0.80;;;;;;;11.24;78.06;101198.69;5050767;28;20037;-78
2022/09/17 07:25:00;;;;;;;2.83;1.00;;;;;;;11.38;77.89;101193.38;5046342;28;20069;-78
2022/09/17 07:27:27;;;;;;;3.22;0.90;;;;;;;11.55;78.04;101191.06;5046325;28;20032;-78
2022/09/17 07:29:53;;;;;;;2.25;1.10;;;;;;;11.72;78.94;101192.69;5046553;28;20488;-78
2022/09/17 07:32:18;;;;;;;1.75;0.80;;;;;;;11.88;77.15;101183.19;5063447;28;20028;-79
2022/09/17 07:34:44;;;;;;;4.20;0.88;;;;;;;12.05;77.14;101188.38;5076382;28;20074;-78
2022/09/17 07:37:09;;;;;;;2.20;1.10;;;;;;;12.21;76.61;101192.72;5049584;28;20408;-78
2022/09/17 07:39:35;;;;;;;3.78;1.10;;;;;;;12.37;77.58;101187.03;5046298;28;20032;-78
2022/09/17 07:42:02;;;;;;;2.65;1.08;;;;;;;12.51;78.02;101183.31;5063056;28;20040;-79
2022/09/17 07:44:27;;;;;;;3.10;1.15;;;;;;;12.66;76.77;101192.69;5079567;28;20129;-78
2022/09/17 07:46:53;;;;;;;1.67;1.00;;;;;;;12.79;77.57;101191.16;5059814;28;20031;-78
2022/09/17 07:49:18;;;;;;;4.18;1.25;;;;;;;12.88;77.46;101190.25;5058509;28;20386;-79
2022/09/17 07:51:44;;;;;;;2.35;0.90;;;;;;;13.02;77.15;101187.59;5060990;28;20032;-79
2022/09/17 07:54:09;;;;;;;2.97;0.93;;;;;;;13.19;75.75;101187.16;5062694;28;20435;-73
2022/09/17 07:56:35;;;;;;;2.45;0.90;;;;;;;13.33;75.11;101184.53;5074779;28;20028;-77
2022/09/17 07:59:01;;;;;;;2.60;0.75;;;;;;;13.53;75.06;101180.66;5063105;28;20036;-75
2022/09/17 08:01:27;;;;;;;1.67;0.68;;;;;;;13.70;74.87;101177.38;5051775;28;20132;-79
2022/09/17 08:03:52;;;;;;;2.85;0.90;;;;;;;13.80;73.22;101185.63;5029193;28;20066;-76
2022/09/17 08:06:24;;;;;;;1.48;0.80;;;;;;;13.94;72.64;101188.50;5060505;28;20029;-75
2022/09/17 08:08:50;;;;;;;2.25;0.93;;;;;;;14.04;72.01;101188.34;5033130;28;20036;-76
2022/09/17 08:11:17;;;;;;;2.47;0.68;;;;;;;14.22;72.48;101189.50;5043015;28;20028;-76
2022/09/17 08:13:46;;;;;;;3.90;0.80;;;;;;;14.36;70.72;101190.41;5061601;28;20061;-76
2022/09/17 08:16:12;;;;;;;3.28;0.88;;;;;;;14.57;71.63;101193.75;5059594;28;20037;-75
2022/09/17 08:18:38;;;;;;;2.42;0.70;;;;;;;14.75;70.92;101203.22;5045755;28;20447;-76
2022/09/17 08:21:04;;;;;;;3.97;0.70;;;;;;;14.88;69.67;101202.44;5056508;28;20043;-76
2022/09/17 08:23:30;;;;;;;3.60;0.80;;;;;;;14.97;68.87;101206.19;5032535;28;20115;-77
2022/09/17 08:25:57;;;;;;;2.78;0.73;;;;;;;15.08;68.16;101208.81;5024871;28;20158;-76
2022/09/17 08:28:24;;;;;;;5.75;1.00;;;;;;;15.19;67.17;101204.69;5037575;28;20036;-76
2022/09/17 08:30:49;;;;;;;3.47;1.45;;;;;;;15.38;66.68;101210.22;5061932;28;20596;-77
2022/09/17 08:33:15;;;;;;;3.83;0.88;;;;;;;15.50;65.28;101218.91;5043250;28;20133;-77
2022/09/17 08:35:41;;;;;;;1.52;0.63;;;;;;;15.63;64.82;101211.69;5062040;28;20028;-77
2022/09/17 08:38:06;;;;;;;2.60;0.70;;;;;;;15.83;65.83;101216.88;5061789;28;20059;-77
2022/09/17 08:40:35;;;;;;;2.63;0.57;;;;;;;16.05;65.71;101215.31;5060634;28;20073;-77
2022/09/17 08:43:01;;;;;;;3.85;0.90;;;;;;;16.19;65.73;101218.91;5058781;28;20024;-77
2022/09/17 08:45:26;;;;;;;5.85;1.38;;;;;;;16.25;62.32;101226.03;5061363;28;20035;-76
2022/09/17 08:47:54;;;;;;;9.02;1.88;;;;;;;16.24;59.81;101235.59;5044789;28;20032;-76
2022/09/17 08:50:31;;;;;;;5.57;1.30;;;;;;;16.35;58.37;101235.34;5061638;28;20110;-76
2022/09/17 08:53:06;;;;;;;5.43;1.70;;;;;;;16.44;58.19;101230.69;5054069;28;20044;-76
2022/09/17 08:55:43;;;;;;;2.88;1.38;;;;;;;16.54;57.10;101236.03;5058733;28;20110;-76
2022/09/17 08:58:50;;;;;;;2.97;1.27;;;;;;;16.67;55.88;101232.34;5096372;28;20541;-76
2022/09/17 09:01:18;;;;;;;2.35;0.88;;;;;;;16.70;53.64;101242.09;5057874;28;20063;-76
2022/09/17 09:03:56;;;;;;;9.20;1.40;;;;;;;16.71;53.08;101238.97;5096418;28;20545;-76
2022/09/17 09:06:23;;;;;;;3.17;1.45;;;;;;;16.81;53.37;101234.31;5077685;28;20032;-75
2022/09/17 09:09:16;;;;;;;3.20;1.50;;;;;;;16.92;54.51;101236.53;5040295;28;20036;-77
2022/09/17 09:11:42;;;;;;;6.80;1.10;;;;;;;17.10;52.52;101231.84;5072341;28;20680;-76
2022/09/17 09:14:27;;;;;;;4.30;0.93;;;;;;;17.26;51.90;101234.25;5041250;28;20085;-77
2022/09/17 09:16:53;;;;;;;4.05;1.00;;;;;;;17.31;51.41;101236.94;5040722;28;20035;-78
2022/09/17 09:19:28;;;;;;;3.75;0.73;;;;;;;17.49;52.20;101230.25;5038484;28;20052;-77
2022/09/17 09:22:03;;;;;;;2.33;0.57;;;;;;;17.54;50.06;101230.09;5075406;28;20054;-77
2022/09/17 09:24:38;;;;;;;2.90;0.63;;;;;;;17.66;50.58;101240.72;5040177;28;20028;-77
2022/09/17 09:27:19;;;;;;;3.40;0.80;;;;;;;17.74;49.41;101241.91;5061074;28;20043;-77
2022/09/17 09:29:55;;;;;;;2.58;0.60;;;;;;;17.80;47.95;101243.44;5056936;28;20465;-77
2022/09/17 09:32:24;;;;;;;5.43;0.65;;;;;;;17.89;47.70;101240.69;5061008;28;20025;-77
2022/09/17 09:34:49;;;;;;;2.90;0.70;;;;;;;17.99;48.66;101248.81;5094498;28;20100;-77
2022/09/17 09:37:26;;;;;;;1.25;0.32;;;;;;;18.18;47.95;101243.72;5058020;28;20078;-76
2022/09/17 09:39:53;;;;;;;3.22;0.50;;;;;;;18.29;46.82;101241.44;5039646;28;20067;-77
2022/09/17 09:42:30;;;;;;;3.30;0.60;;;;;;;18.46;46.95;101240.63;5077548;28;20020;-76
2022/09/17 09:45:00;;;;;;;3.38;0.50;;;;;;;18.60;46.12;101244.09;5023067;28;20028;-76
2022/09/17 09:47:31;;;;;;;4.03;0.70;;;;;;;18.59;44.93;101241.63;5061102;28;20107;-76
2022/09/17 09:50:15;;;;;;;2.15;0.47;;;;;;;18.59;45.24;101247.25;5072848;28;20028;-75
2022/09/17 09:52:50;;;;;;;2.00;0.60;;;;;;;18.54;41.76;101246.25;5073981;28;20024;-76
2022/09/17 09:55:31;;;;;;;5.90;0.43;;;;;;;18.55;41.37;101238.63;5041277;28;20025;-76
2022/09/17 09:58:28;;;;;;;2.17;0.40;;;;;;;18.53;40.69;101241.78;5071590;28;20130;-75
2022/09/17 10:00:53;;;;;;;4.70;0.65;;;;;;;18.56;39.93;101247.91;5056131;28;20075;-77
2022/09/17 10:03:21;;;;;;;2.03;0.43;;;;;;;18.51;40.16;101237.66;5031787;28;20033;-76
2022/09/17 10:05:59;;;;;;;2.28;0.68;;;;;;;18.54;41.68;101242.59;5071622;28;20028;-76
2022/09/17 10:08:25;;;;;;;2.05;0.50;;;;;;;18.53;41.50;101233.34;5057165;28;20106;-75
2022/09/17 10:11:04;;;;;;;1.85;0.50;;;;;;;18.62;42.27;101235.34;5059406;28;20020;-75
2022/09/17 10:13:37;;;;;;;4.10;0.60;;;;;;;18.69;42.53;101225.25;5065097;28;20508;-76
2022/09/17 10:16:25;;;;;;;3.67;0.50;;;;;;;18.85;43.80;101224.75;5046604;28;20032;-76
2022/09/17 10:19:08;;;;;;;1.88;0.38;;;;;;;18.99;44.02;101222.56;5083389;28;20028;-75
2022/09/17 10:21:38;;;;;;;;;;;;;;;19.11;43.93;101222.72;5049760;28;20029;-70
2022/09/17 10:24:09;;;;;;;3.20;0.45;;;;;;;19.07;42.25;101223.72;5065674;28;19939;-73
2022/09/17 10:26:35;;;;;;;4.47;0.70;;;;;;;19.05;40.18;101232.50;5060949;28;20036;-74
2022/09/17 10:29:20;;;;;;;3.75;0.50;;;;;;;19.17;40.79;101221.38;5055446;28;20060;-76
2022/09/17 10:31:56;;;;;;;3.65;0.57;;;;;;;19.31;40.80;101221.19;5073672;28;20035;-75
2022/09/17 10:34:26;;;;;;;2.35;0.40;;;;;;;19.38;40.57;101223.47;5065156;28;20052;-74
2022/09/17 10:36:52;;;;;;;1.73;0.40;;;;;;;19.50;40.88;101219.94;5063209;28;20412;-76
2022/09/17 10:39:41;;;;;;;3.28;0.43;;;;;;;19.62;41.52;101222.88;5080677;28;20067;-74
2022/09/17 10:42:27;;;;;;;3.05;0.60;;;;;;;19.64;40.46;101220.56;5080804;28;20028;-74
2022/09/17 10:44:53;;;;;;;3.85;0.80;;;;;;;19.61;39.79;101215.59;5060466;28;20044;-74
2022/09/17 10:47:19;;;;;;;4.65;0.65;;;;;;;19.62;39.34;101214.44;5054703;28;20102;-74
2022/09/17 10:50:01;;;;;;;2.05;0.77;;;;;;;19.58;38.18;101211.44;5076715;28;20031;-74
2022/09/17 10:52:29;;;;;;;1.98;0.60;;;;;;;19.65;39.14;101216.56;5063940;28;20032;-74
2022/09/17 10:55:13;;;;;;;2.15;0.50;;;;;;;19.75;40.62;101207.78;5058114;28;20078;-74
2022/09/17 10:57:57;;;;;;;4.35;0.50;;;;;;;19.88;40.77;101213.50;5081721;28;20089;-76
2022/09/17 11:00:22;;;;;;;1.15;0.40;;;;;;;19.95;40.30;101213.81;5096392;28;20123;-77
2022/09/17 11:03:09;;;;;;;2.13;0.50;;;;;;;20.01;39.67;101210.44;5063329;28;20059;-75
2022/09/17 11:06:05;;;;;;;3.60;0.70;;;;;;;19.91;37.61;101218.47;5077672;28;20090;-75
2022/09/17 11:08:53;;;;;;;2.45;0.55;;;;;;;20.02;38.74;101211.25;5063437;28;20123;-75
2022/09/17 11:11:40;;;;;;;3.42;0.68;;;;;;;20.08;39.08;101209.88;5080163;28;20050;-74
2022/09/17 11:14:24;;;;;;;3.42;0.50;;;;;;;20.09;38.74;101195.47;5060731;28;20037;-74
2022/09/17 11:17:24;;;;;;;1.15;0.35;;;;;;;20.21;39.32;101194.72;5059971;28;20025;-72
2022/09/17 11:20:03;;;;;;;3.67;0.70;;;;;;;20.24;39.31;101190.38;5078591;28;20140;-75
2022/09/17 11:23:04;;;;;;;5.03;0.50;;;;;;;20.23;38.32;101191.56;5066685;28;20043;-75
2022/09/17 11:25:35;;;;;;;3.03;0.50;;;;;;;20.18;36.37;101186.94;5026557;28;20045;-75
2022/09/17 11:28:33;;;;;;;2.20;0.32;;;;;;;20.33;38.29;101176.22;5080045;28;20028;-73
2022/09/17 11:31:30;;;;;;;2.15;0.47;;;;;;;20.46;38.24;101173.09;5059911;28;20024;-76
2022/09/17 11:34:21;;;;;;;2.95;0.68;;;;;;;20.57;38.49;101167.91;5060051;28;20122;-77
2022/09/17 11:37:04;;;;;;;1.80;0.32;;;;;;;20.66;38.48;101171.44;5059067;28;20073;-75
2022/09/17 11:39:38;;;;;;;;;;;;;;;20.72;37.56;101167.25;5061222;28;20035;-75
2022/09/17 11:42:08;;;;;;;2.60;0.30;;;;;;;20.80;38.07;101157.03;5056232;28;20007;-75
2022/09/17 11:44:54;;;;;;;3.08;0.45;;;;;;;20.83;37.08;101162.00;5063123;28;20099;-76
2022/09/17 11:47:29;;;;;;;2.85;0.35;;;;;;;20.87;36.58;101159.31;5060112;28;20028;-76